TimeEET,TemperatureF,Dew PointF,Humidity,Sea Level PressureIn,VisibilityMPH,Wind Direction,Wind SpeedMPH,Gust SpeedMPH,PrecipitationIn,Events,Conditions,WindDirDegrees,DateUTC
12:20 AM,39.2,33.8,81,30.21,-9999.0,Variable,3.5,-,N/A,,Unknown,0,2013-02-28 22:20:00
12:50 AM,37.4,33.8,87,30.21,-9999.0,Variable,2.3,-,N/A,,Unknown,0,2013-02-28 22:50:00
1:20 AM,39.2,33.8,81,30.21,-9999.0,Variable,1.2,-,N/A,,Unknown,0,2013-02-28 23:20:00
1:50 AM,37.4,33.8,87,30.21,6.2,Calm,Calm,-,N/A,,Scattered Clouds,0,2013-02-28 23:50:00
2:00 AM,37,34,84,30.22,6,Calm,Calm,,,,Partly Cloudy,,2013-03-01 00:00:00
2:20 AM,37.4,33.8,87,30.21,-9999.0,Variable,2.3,-,N/A,,Unknown,0,2013-03-01 00:20:00
2:50 AM,37.4,33.8,87,30.18,-9999.0,Variable,1.2,-,N/A,,Unknown,0,2013-03-01 00:50:00
3:20 AM,37.4,33.8,87,30.18,-9999.0,Variable,1.2,-,N/A,,Unknown,0,2013-03-01 01:20:00
3:50 AM,35.6,32.0,87,30.18,-9999.0,Variable,1.2,-,N/A,,Unknown,0,2013-03-01 01:50:00
4:20 AM,35.6,32.0,87,30.18,-9999.0,Variable,1.2,-,N/A,,Unknown,0,2013-03-01 02:20:00
4:50 AM,35.6,32.0,87,30.18,-9999.0,Calm,Calm,-,N/A,,Unknown,0,2013-03-01 02:50:00
5:20 AM,35.6,32.0,87,30.18,-9999.0,Variable,1.2,-,N/A,,Unknown,0,2013-03-01 03:20:00
5:50 AM,33.8,32.0,93,30.15,6.2,Calm,Calm,-,N/A,,Partly Cloudy,0,2013-03-01 03:50:00
6:20 AM,33.8,32.0,93,30.15,6.2,Calm,Calm,-,N/A,,Partly Cloudy,0,2013-03-01 04:20:00
6:50 AM,35.6,32.0,87,30.15,-9999.0,Calm,Calm,-,N/A,,Clear,0,2013-03-01 04:50:00
7:20 AM,35.6,33.8,93,30.15,-9999.0,Calm,Calm,-,N/A,,Clear,0,2013-03-01 05:20:00
7:50 AM,37.4,35.6,93,30.15,-9999.0,Calm,Calm,-,N/A,,Clear,0,2013-03-01 05:50:00
8:00 AM,38,36,87,30.16,6,Calm,Calm,,,,,,2013-03-01 06:00:00
8:20 AM,42.8,39.2,87,30.15,-9999.0,Calm,Calm,-,N/A,,Clear,0,2013-03-01 06:20:00
8:50 AM,46.4,41.0,81,30.15,-9999.0,Calm,Calm,-,N/A,,Clear,0,2013-03-01 06:50:00
9:20 AM,50.0,41.0,71,30.15,-9999.0,Calm,Calm,-,N/A,,Clear,0,2013-03-01 07:20:00
9:50 AM,51.8,39.2,62,30.15,-9999.0,Calm,Calm,-,N/A,,Clear,0,2013-03-01 07:50:00
10:20 AM,51.8,39.2,62,30.15,6.2,Variable,3.5,-,N/A,,Partly Cloudy,0,2013-03-01 08:20:00
10:50 AM,51.8,37.4,58,30.12,6.2,Variable,3.5,-,N/A,,Partly Cloudy,0,2013-03-01 08:50:00
11:20 AM,51.8,37.4,58,30.12,6.2,Variable,3.5,-,N/A,,Partly Cloudy,0,2013-03-01 09:20:00
11:50 AM,51.8,39.2,62,30.12,6.2,SE,4.6,-,N/A,,Scattered Clouds,130,2013-03-01 09:50:00
12:20 PM,51.8,39.2,62,30.12,6.2,SE,4.6,-,N/A,,Scattered Clouds,140,2013-03-01 10:20:00
12:50 PM,53.6,39.2,58,30.09,6.2,Variable,3.5,-,N/A,,Mostly Cloudy,0,2013-03-01 10:50:00
1:20 PM,51.8,39.2,62,30.09,6.2,Variable,3.5,-,N/A,,Mostly Cloudy,0,2013-03-01 11:20:00
1:50 PM,53.6,39.2,58,30.09,6.2,Variable,3.5,-,N/A,,Mostly Cloudy,0,2013-03-01 11:50:00
2:00 PM,53,40,50,30.10,6,,3.5,,,,Mostly Cloudy,,2013-03-01 12:00:00
2:20 PM,53.6,41.0,62,30.06,6.2,South,4.6,-,N/A,,Scattered Clouds,170,2013-03-01 12:20:00
2:50 PM,53.6,39.2,58,30.06,6.2,Variable,3.5,-,N/A,,Scattered Clouds,0,2013-03-01 12:50:00
3:20 PM,53.6,41.0,62,30.06,6.2,Variable,3.5,-,N/A,,Scattered Clouds,0,2013-03-01 13:20:00
3:50 PM,53.6,41.0,62,30.06,6.2,South,4.6,-,N/A,,Scattered Clouds,170,2013-03-01 13:50:00
4:20 PM,51.8,39.2,62,30.04,6.2,Variable,3.5,-,N/A,,Scattered Clouds,0,2013-03-01 14:20:00
4:50 PM,53.6,39.2,58,30.04,6.2,Calm,Calm,-,N/A,,Partly Cloudy,0,2013-03-01 14:50:00
5:20 PM,53.6,39.2,58,30.04,-9999.0,Calm,Calm,-,N/A,,Clear,0,2013-03-01 15:20:00
5:50 PM,51.8,41.0,67,30.04,-9999.0,Variable,3.5,-,N/A,,Clear,0,2013-03-01 15:50:00
6:20 PM,48.2,41.0,76,30.04,-9999.0,Calm,Calm,-,N/A,,Clear,0,2013-03-01 16:20:00
6:50 PM,46.4,41.0,81,30.04,-9999.0,Calm,Calm,-,N/A,,Clear,0,2013-03-01 16:50:00
7:20 PM,44.6,39.2,81,30.04,-9999.0,Calm,Calm,-,N/A,,Clear,0,2013-03-01 17:20:00
7:50 PM,42.8,39.2,87,30.04,-9999.0,Calm,Calm,-,N/A,,Clear,0,2013-03-01 17:50:00
8:00 PM,43,38,78,30.05,6,Calm,Calm,,,,,,2013-03-01 18:00:00
8:20 PM,42.8,37.4,81,30.04,-9999.0,Calm,Calm,-,N/A,,Unknown,0,2013-03-01 18:20:00
8:50 PM,42.8,39.2,87,30.04,-9999.0,Calm,Calm,-,N/A,,Unknown,0,2013-03-01 18:50:00
9:20 PM,41.0,37.4,87,30.04,-9999.0,Calm,Calm,-,N/A,,Unknown,0,2013-03-01 19:20:00
9:50 PM,39.2,35.6,87,30.04,-9999.0,Calm,Calm,-,N/A,,Unknown,0,2013-03-01 19:50:00
10:20 PM,39.2,37.4,93,30.04,-9999.0,Calm,Calm,-,N/A,,Unknown,0,2013-03-01 20:20:00
10:50 PM,39.2,35.6,87,30.01,-9999.0,Calm,Calm,-,N/A,,Unknown,0,2013-03-01 20:50:00
11:20 PM,39.2,35.6,87,30.01,-9999.0,Calm,Calm,-,N/A,,Unknown,0,2013-03-01 21:20:00
11:50 PM,39.2,37.4,93,30.01,-9999.0,Calm,Calm,-,N/A,,Unknown,0,2013-03-01 21:50:00